Time;durP1;ratioP1;P1;durP2;ratioP2;P2;SDS_P1;SDS_P2;PMS_P1;PMS_P2;Temp;Humidity;BMP_temperature;BMP_pressure;BME280_temperature;BME280_humidity;BME280_pressure;Samples;Min_cycle;Max_cycle;Signal;HPM_P1;HPM_P2
2023/06/28 00:01:07;;;;;;;8.32;3.42;;;;;;;;;;4980848;28;20060;-88
2023/06/28 00:03:33;;;;;;;7.63;3.67;;;;;;;;;;4983779;28;20046;-88
2023/06/28 00:05:59;;;;;;;8.25;3.90;;;;;;;;;;4991882;28;20113;-88
2023/06/28 00:08:25;;;;;;;7.45;3.47;;;;;;;;;;4996469;28;20042;-88
2023/06/28 00:10:51;;;;;;;8.20;3.70;;;;;;;;;;4990702;28;20045;-88
2023/06/28 00:13:18;;;;;;;9.40;3.50;;;;;;;;;;5015775;28;20135;-89
2023/06/28 00:15:44;;;;;;;9.13;3.78;;;;;;;;;;5003448;28;20045;-88
2023/06/28 00:18:11;;;;;;;6.35;3.60;;;;;;;;;;4981999;28;20040;-88
2023/06/28 00:20:37;;;;;;;7.55;3.75;;;;;;;;;;5017988;28;20033;-88
2023/06/28 00:23:18;;;;;;;10.52;3.63;;;;;;;;;;4981722;28;20041;-88
2023/06/28 00:25:45;;;;;;;7.68;3.60;;;;;;;;;;4989035;28;20045;-87
2023/06/28 00:28:11;;;;;;;7.35;3.65;;;;;;;;;;5010318;28;20060;-87
2023/06/28 00:30:37;;;;;;;7.95;4.15;;;;;;;;;;5004108;28;20044;-88
2023/06/28 00:33:03;;;;;;;8.20;3.83;;;;;;;;;;5009019;28;20033;-87
2023/06/28 00:35:29;;;;;;;7.30;3.65;;;;;;;;;;5019653;28;20041;-87
2023/06/28 00:37:55;;;;;;;10.55;3.78;;;;;;;;;;4986971;28;20526;-87
2023/06/28 00:40:22;;;;;;;6.95;4.10;;;;;;;;;;5005494;28;20046;-87
2023/06/28 00:42:48;;;;;;;5.68;3.90;;;;;;;;;;4980021;28;20125;-88
2023/06/28 00:45:14;;;;;;;8.10;3.70;;;;;;;;;;4989210;28;20048;-87
2023/06/28 00:47:40;;;;;;;7.60;3.72;;;;;;;;;;5006204;28;20052;-87
2023/06/28 00:50:12;;;;;;;8.00;3.88;;;;;;;;;;4982865;28;21194;-87
2023/06/28 00:52:38;;;;;;;7.32;3.95;;;;;;;;;;4982137;28;20041;-87
2023/06/28 00:55:05;;;;;;;10.18;4.05;;;;;;;;;;4991201;28;20426;-87
2023/06/28 00:57:31;;;;;;;7.43;4.10;;;;;;;;;;4995506;28;20052;-87
2023/06/28 00:59:57;;;;;;;10.27;4.15;;;;;;;;;;4993191;28;20040;-87
2023/06/28 01:02:23;;;;;;;6.70;3.80;;;;;;;;;;4986182;28;20137;-87
2023/06/28 01:04:50;;;;;;;8.02;3.92;;;;;;;;;;4993882;28;20132;-87
2023/06/28 01:07:16;;;;;;;12.75;4.20;;;;;;;;;;4988079;28;21417;-87
2023/06/28 01:09:42;;;;;;;9.60;4.40;;;;;;;;;;5000597;28;20493;-87
2023/06/28 01:12:08;;;;;;;6.68;4.10;;;;;;;;;;5008562;28;20460;-88
2023/06/28 01:14:34;;;;;;;12.10;4.78;;;;;;;;;;5009715;28;20060;-88
2023/06/28 01:17:00;;;;;;;8.85;4.55;;;;;;;;;;4992043;28;20409;-88
2023/06/28 01:19:26;;;;;;;9.23;4.43;;;;;;;;;;4999096;28;20060;-88
2023/06/28 01:22:00;;;;;;;7.20;4.32;;;;;;;;;;4988111;28;20083;-87
2023/06/28 01:24:26;;;;;;;9.98;4.65;;;;;;;;;;5012236;28;20601;-88
2023/06/28 01:26:52;;;;;;;8.85;4.32;;;;;;;;;;5004374;28;20045;-88
2023/06/28 01:29:23;;;;;;;8.15;4.10;;;;;;;;;;5001353;28;20450;-88
2023/06/28 01:31:52;;;;;;;6.05;4.50;;;;;;;;;;4993578;28;20034;-88
2023/06/28 01:34:19;;;;;;;6.43;4.32;;;;;;;;;;5020611;28;20037;-88
2023/06/28 01:36:45;;;;;;;11.00;4.45;;;;;;;;;;5015263;28;20190;-88
2023/06/28 01:39:11;;;;;;;9.63;4.55;;;;;;;;;;4999917;28;20497;-88
2023/06/28 01:41:37;;;;;;;10.60;4.88;;;;;;;;;;4985057;28;20084;-88
2023/06/28 01:44:09;;;;;;;8.93;5.03;;;;;;;;;;4991297;28;20069;-88
2023/06/28 01:46:35;;;;;;;6.95;3.90;;;;;;;;;;5005024;28;20062;-88
2023/06/28 01:49:01;;;;;;;7.40;4.07;;;;;;;;;;4996009;28;20037;-88
2023/06/28 01:51:27;;;;;;;5.28;3.92;;;;;;;;;;4998430;28;20048;-88
2023/06/28 01:53:53;;;;;;;7.63;4.63;;;;;;;;;;4996169;28;20375;-87
2023/06/28 01:56:19;;;;;;;7.15;4.25;;;;;;;;;;4980683;28;20549;-88
2023/06/28 01:58:48;;;;;;;6.32;3.47;;;;;;;;;;4978292;28;20033;-88
2023/06/28 02:01:14;;;;;;;6.70;4.00;;;;;;;;;;4978882;28;20535;-88
2023/06/28 02:03:40;;;;;;;7.32;4.18;;;;;;;;;;4989109;28;20041;-88
2023/06/28 02:06:08;;;;;;;11.30;4.97;;;;;;;;;;4980074;28;21493;-88
2023/06/28 02:08:34;;;;;;;5.38;4.30;;;;;;;;;;4980998;28;20379;-88
2023/06/28 02:11:00;;;;;;;8.32;3.90;;;;;;;;;;4980016;28;20403;-88
2023/06/28 02:13:26;;;;;;;7.85;4.38;;;;;;;;;;5000138;28;20050;-88
2023/06/28 02:15:52;;;;;;;6.10;4.03;;;;;;;;;;4973020;28;20045;-88
2023/06/28 02:18:24;;;;;;;7.95;4.47;;;;;;;;;;4989481;28;20029;-88
2023/06/28 02:20:51;;;;;;;8.65;4.28;;;;;;;;;;4978724;28;20081;-88
2023/06/28 02:23:18;;;;;;;7.18;4.82;;;;;;;;;;4989967;28;20482;-88
2023/06/28 02:26:15;;;;;;;6.60;4.50;;;;;;;;;;5004877;28;20052;-88
2023/06/28 02:28:48;;;;;;;5.80;4.35;;;;;;;;;;4999592;28;20042;-88
2023/06/28 02:31:16;;;;;;;6.85;4.40;;;;;;;;;;4981876;28;20362;-88
2023/06/28 02:33:42;;;;;;;10.00;5.18;;;;;;;;;;4984626;28;20077;-88
2023/06/28 02:36:08;;;;;;;8.40;4.45;;;;;;;;;;4992025;28;20053;-88
2023/06/28 02:38:34;;;;;;;7.45;4.88;;;;;;;;;;4996866;28;20732;-88
2023/06/28 02:41:00;;;;;;;11.07;5.00;;;;;;;;;;4996872;28;20034;-88
2023/06/28 02:43:26;;;;;;;10.45;4.80;;;;;;;;;;5014467;28;20064;-88
2023/06/28 02:45:52;;;;;;;7.97;4.97;;;;;;;;;;4981183;28;21459;-88
2023/06/28 02:48:19;;;;;;;7.20;5.05;;;;;;;;;;5000185;28;20798;-88
2023/06/28 02:50:45;;;;;;;7.68;4.28;;;;;;;;;;4997329;28;20422;-89
2023/06/28 02:53:11;;;;;;;7.20;4.57;;;;;;;;;;4992571;28;20355;-88
2023/06/28 02:55:37;;;;;;;7.00;5.25;;;;;;;;;;4997562;28;20095;-88
2023/06/28 02:58:03;;;;;;;9.10;5.28;;;;;;;;;;4981738;28;20128;-88
2023/06/28 03:00:29;;;;;;;11.40;5.00;;;;;;;;;;4984603;28;20128;-88
2023/06/28 03:02:55;;;;;;;7.95;4.97;;;;;;;;;;4985910;28;20046;-88
2023/06/28 03:05:21;;;;;;;10.63;5.00;;;;;;;;;;4999264;28;20158;-89
2023/06/28 03:07:47;;;;;;;8.02;5.18;;;;;;;;;;5011656;28;20042;-88
2023/06/28 03:10:14;;;;;;;9.45;5.10;;;;;;;;;;4975064;28;20049;-89
2023/06/28 03:12:41;;;;;;;9.20;4.97;;;;;;;;;;4989783;28;20041;-88
2023/06/28 03:15:07;;;;;;;10.85;6.10;;;;;;;;;;4974268;28;20912;-88
2023/06/28 03:17:33;;;;;;;7.97;4.78;;;;;;;;;;5000707;28;20381;-88
2023/06/28 03:19:59;;;;;;;7.43;5.05;;;;;;;;;;4983546;28;20616;-89
2023/06/28 03:22:25;;;;;;;13.20;4.88;;;;;;;;;;4984363;28;20037;-88
2023/06/28 03:24:51;;;;;;;6.97;4.72;;;;;;;;;;4977931;28;20040;-88
2023/06/28 03:27:19;;;;;;;9.15;5.78;;;;;;;;;;4982466;28;20049;-88
2023/06/28 03:29:45;;;;;;;9.15;5.28;;;;;;;;;;4990436;28;20158;-88
2023/06/28 03:32:11;;;;;;;12.85;5.70;;;;;;;;;;5007337;28;20103;-89
2023/06/28 03:34:37;;;;;;;9.27;5.32;;;;;;;;;;4999648;28;20509;-88
2023/06/28 03:37:03;;;;;;;10.25;5.32;;;;;;;;;;4980602;28;20639;-89
2023/06/28 03:39:29;;;;;;;10.75;5.70;;;;;;;;;;5004400;28;20065;-88
2023/06/28 03:41:55;;;;;;;8.48;6.07;;;;;;;;;;4979237;28;20041;-88
2023/06/28 03:47:33;;;;;;;10.30;5.40;;;;;;;;;;5006479;28;20131;-88
2023/06/28 03:49:59;;;;;;;9.45;5.80;;;;;;;;;;4983763;28;20064;-88
2023/06/28 03:52:25;;;;;;;8.85;4.70;;;;;;;;;;4983072;28;20386;-88
2023/06/28 03:54:52;;;;;;;9.98;5.97;;;;;;;;;;4996122;28;20049;-88
2023/06/28 03:57:21;;;;;;;15.68;6.40;;;;;;;;;;5002707;28;20041;-88
2023/06/28 03:59:47;;;;;;;9.98;5.80;;;;;;;;;;4981640;28;20033;-88
2023/06/28 04:02:13;;;;;;;8.15;5.78;;;;;;;;;;4983812;28;20619;-89
2023/06/28 04:04:40;;;;;;;9.50;6.30;;;;;;;;;;5003345;28;20050;-88
2023/06/28 04:07:06;;;;;;;10.25;5.93;;;;;;;;;;5004376;28;20083;-88
2023/06/28 04:09:55;;;;;;;;;;;;;;;;;;;;;
2023/06/28 04:12:21;;;;;;;8.20;5.35;;;;;;;;;;5005731;28;21709;-88
2023/06/28 04:14:47;;;;;;;8.82;5.35;;;;;;;;;;4964506;28;20073;-88
2023/06/28 04:17:14;;;;;;;9.57;6.07;;;;;;;;;;4974381;28;20077;-88
2023/06/28 04:19:40;;;;;;;9.52;5.80;;;;;;;;;;4987712;28;20041;-88
2023/06/28 04:22:06;;;;;;;9.38;6.13;;;;;;;;;;4986821;28;20044;-88
2023/06/28 04:24:56;;;;;;;10.77;5.80;;;;;;;;;;4969977;28;20186;-88
2023/06/28 04:27:25;;;;;;;10.73;5.78;;;;;;;;;;4989319;28;20057;-88
2023/06/28 04:30:11;;;;;;;10.85;5.88;;;;;;;;;;4990932;28;20144;-88
2023/06/28 04:32:37;;;;;;;9.32;5.63;;;;;;;;;;4994675;28;20040;-89
2023/06/28 04:35:03;;;;;;;7.28;5.63;;;;;;;;;;4992169;28;20392;-88
2023/06/28 04:37:31;;;;;;;9.13;5.30;;;;;;;;;;4984005;28;20045;-88
2023/06/28 04:40:00;;;;;;;7.88;5.07;;;;;;;;;;4992433;28;20158;-88
2023/06/28 04:42:26;;;;;;;11.85;5.82;;;;;;;;;;4991449;28;20071;-88
2023/06/28 04:44:59;;;;;;;7.28;5.05;;;;;;;;;;4974820;28;20060;-89
2023/06/28 04:47:26;;;;;;;9.80;5.68;;;;;;;;;;4993488;28;20068;-88
2023/06/28 04:49:52;;;;;;;10.15;6.10;;;;;;;;;;5002493;28;20501;-88
2023/06/28 04:52:19;;;;;;;10.45;5.55;;;;;;;;;;4975152;28;20083;-89
2023/06/28 04:54:48;;;;;;;9.30;5.13;;;;;;;;;;4993463;28;20425;-88
2023/06/28 04:57:15;;;;;;;7.35;5.05;;;;;;;;;;4991439;28;20367;-88
2023/06/28 04:59:41;;;;;;;8.32;4.65;;;;;;;;;;4988552;28;20041;-88
2023/06/28 05:02:09;;;;;;;8.48;5.55;;;;;;;;;;4973771;28;21175;-89
2023/06/28 05:04:35;;;;;;;12.38;5.50;;;;;;;;;;4985264;28;20037;-88
2023/06/28 05:07:04;;;;;;;8.63;4.82;;;;;;;;;;4999272;28;20080;-89
2023/06/28 05:09:30;;;;;;;9.77;5.55;;;;;;;;;;4989141;28;20044;-88
2023/06/28 05:11:56;;;;;;;6.00;5.25;;;;;;;;;;4978314;28;20042;-88
2023/06/28 05:14:24;;;;;;;6.15;5.18;;;;;;;;;;4997005;28;20045;-88
2023/06/28 05:16:50;;;;;;;7.95;4.72;;;;;;;;;;4980424;28;20604;-88
2023/06/28 05:19:16;;;;;;;8.18;4.95;;;;;;;;;;4992203;28;20094;-88
2023/06/28 05:21:42;;;;;;;8.25;5.47;;;;;;;;;;4974690;28;20113;-88
2023/06/28 05:24:11;;;;;;;9.20;5.30;;;;;;;;;;4963036;28;20088;-88
2023/06/28 05:26:37;;;;;;;6.63;5.15;;;;;;;;;;4978873;28;20390;-89
2023/06/28 05:29:03;;;;;;;8.20;5.25;;;;;;;;;;4979939;28;20103;-89
2023/06/28 05:31:29;;;;;;;10.05;5.68;;;;;;;;;;4970243;28;20096;-88
2023/06/28 05:33:55;;;;;;;9.13;5.10;;;;;;;;;;4971004;28;20051;-88
2023/06/28 05:36:22;;;;;;;7.95;5.30;;;;;;;;;;4988421;28;20061;-89
2023/06/28 05:38:48;;;;;;;6.45;5.13;;;;;;;;;;4985794;28;20069;-88
2023/06/28 05:41:17;;;;;;;8.32;4.60;;;;;;;;;;4995596;28;20057;-88
2023/06/28 05:44:10;;;;;;;6.30;4.80;;;;;;;;;;4988586;28;20049;-88
2023/06/28 05:46:37;;;;;;;8.18;5.00;;;;;;;;;;4976186;28;20053;-89
2023/06/28 05:49:09;;;;;;;7.07;4.47;;;;;;;;;;4987774;28;20100;-88
2023/06/28 05:51:36;;;;;;;6.43;3.90;;;;;;;;;;4991206;28;20049;-87
2023/06/28 05:54:08;;;;;;;6.68;4.07;;;;;;;;;;5001242;28;20096;-88
2023/06/28 05:56:35;;;;;;;5.43;3.30;;;;;;;;;;4989510;28;20045;-88
2023/06/28 05:59:01;;;;;;;5.47;3.53;;;;;;;;;;4971593;28;20041;-88
2023/06/28 06:01:27;;;;;;;7.72;3.47;;;;;;;;;;4985334;28;20148;-88
2023/06/28 06:03:53;;;;;;;5.65;3.35;;;;;;;;;;4992503;28;20501;-89
2023/06/28 06:06:19;;;;;;;7.13;3.30;;;;;;;;;;4980324;28;20048;-89
2023/06/28 06:08:45;;;;;;;8.32;3.92;;;;;;;;;;4980066;28;20088;-88
2023/06/28 06:11:11;;;;;;;4.13;2.97;;;;;;;;;;5001270;28;20084;-89
2023/06/28 06:13:37;;;;;;;6.88;3.92;;;;;;;;;;5012795;28;20777;-89
2023/06/28 06:16:12;;;;;;;6.47;3.50;;;;;;;;;;4988815;28;20152;-91
2023/06/28 06:18:40;;;;;;;5.00;3.35;;;;;;;;;;4976725;28;20049;-89
2023/06/28 06:21:07;;;;;;;7.43;3.92;;;;;;;;;;4994305;28;20072;-89
2023/06/28 06:23:33;;;;;;;7.97;3.47;;;;;;;;;;4983860;28;20042;-88
2023/06/28 06:25:59;;;;;;;5.25;3.17;;;;;;;;;;5006369;28;20128;-88
2023/06/28 06:28:25;;;;;;;4.47;3.72;;;;;;;;;;4981994;28;20509;-89
2023/06/28 06:30:51;;;;;;;9.77;3.83;;;;;;;;;;4977384;28;20524;-88
2023/06/28 06:33:17;;;;;;;7.57;3.40;;;;;;;;;;5011798;28;20057;-88
2023/06/28 06:35:43;;;;;;;9.02;3.47;;;;;;;;;;4977596;28;20053;-88
2023/06/28 06:38:09;;;;;;;9.07;4.05;;;;;;;;;;4984041;28;20076;-87
2023/06/28 06:40:35;;;;;;;6.18;3.85;;;;;;;;;;4995409;28;23267;-88
2023/06/28 06:43:01;;;;;;;7.05;4.60;;;;;;;;;;5003791;28;20041;-88
2023/06/28 06:45:27;;;;;;;8.43;4.47;;;;;;;;;;5007783;28;20052;-89
2023/06/28 06:47:53;;;;;;;8.73;4.35;;;;;;;;;;5005294;28;20156;-88
2023/06/28 06:50:20;;;;;;;10.25;4.70;;;;;;;;;;4998104;28;20041;-89
2023/06/28 06:52:50;;;;;;;8.85;5.20;;;;;;;;;;4997810;28;20532;-88
2023/06/28 06:55:16;;;;;;;12.07;5.07;;;;;;;;;;4977576;28;20092;-88
2023/06/28 06:57:42;;;;;;;8.25;4.95;;;;;;;;;;5007836;28;20041;-88
2023/06/28 07:00:08;;;;;;;9.63;5.03;;;;;;;;;;4987473;28;20095;-88
2023/06/28 07:02:35;;;;;;;9.10;5.05;;;;;;;;;;4997196;28;20066;-89
2023/06/28 07:05:01;;;;;;;8.95;5.15;;;;;;;;;;4988298;28;20041;-88
2023/06/28 07:07:27;;;;;;;8.70;5.07;;;;;;;;;;4973392;28;20107;-88
2023/06/28 07:09:53;;;;;;;7.20;4.55;;;;;;;;;;4994457;28;20051;-88
2023/06/28 07:12:19;;;;;;;9.32;5.47;;;;;;;;;;4997631;28;20509;-88
2023/06/28 07:14:46;;;;;;;8.82;5.40;;;;;;;;;;4992797;28;20030;-88
2023/06/28 07:17:15;;;;;;;8.35;5.28;;;;;;;;;;4982637;28;20037;-87
2023/06/28 07:20:00;;;;;;;9.80;5.20;;;;;;;;;;4980496;28;20506;-88
2023/06/28 07:22:27;;;;;;;9.00;6.20;;;;;;;;;;4960863;28;20402;-88
2023/06/28 07:24:53;;;;;;;10.10;5.78;;;;;;;;;;4958882;28;20057;-88
2023/06/28 07:27:19;;;;;;;8.10;6.00;;;;;;;;;;4978406;28;20077;-87
2023/06/28 07:29:48;;;;;;;8.73;5.50;;;;;;;;;;4956898;28;20498;-88
2023/06/28 07:32:14;;;;;;;11.27;5.88;;;;;;;;;;4965220;28;20030;-88
2023/06/28 07:34:40;;;;;;;11.35;6.00;;;;;;;;;;4962926;28;20082;-88
2023/06/28 07:37:29;;;;;;;14.48;6.85;;;;;;;;;;4954026;28;20120;-89
2023/06/28 07:40:04;;;;;;;14.63;6.63;;;;;;;;;;4973392;28;20157;-89
2023/06/28 07:42:30;;;;;;;12.30;7.03;;;;;;;;;;4953431;28;20058;-88
2023/06/28 07:45:29;;;;;;;8.65;6.07;;;;;;;;;;4955528;28;20055;-89
2023/06/28 07:48:04;;;;;;;9.88;6.05;;;;;;;;;;4974876;28;20493;-88
2023/06/28 07:50:47;;;;;;;15.00;7.20;;;;;;;;;;4976350;28;20072;-89
2023/06/28 07:53:34;;;;;;;11.02;7.53;;;;;;;;;;4997008;28;20075;-89
2023/06/28 07:59:32;;;;;;;10.95;6.72;;;;;;;;;;5078262;22;20567;-85
2023/06/28 08:01:58;;;;;;;12.68;7.38;;;;;;;;;;4988217;28;20056;-85
2023/06/28 08:04:24;;;;;;;13.60;8.13;;;;;;;;;;5010860;28;20520;-85
2023/06/28 08:06:50;;;;;;;9.20;6.57;;;;;;;;;;5004599;28;20044;-85
2023/06/28 08:09:16;;;;;;;11.60;7.13;;;;;;;;;;4995098;28;20045;-86
2023/06/28 08:11:42;;;;;;;10.70;8.07;;;;;;;;;;4997670;28;20037;-86
2023/06/28 08:14:08;;;;;;;13.52;9.00;;;;;;;;;;4989374;28;20118;-86
2023/06/28 08:17:00;;;;;;;11.15;8.32;;;;;;;;;;4983897;28;20473;-86
2023/06/28 08:26:45;;;;;;;14.65;8.63;;;;;;;;;;4961423;28;20077;-85
2023/06/28 08:37:04;;;;;;;;;;;;;;;;;;;;;
2023/06/28 08:40:13;;;;;;;10.43;7.72;;;;;;;;;;4790340;29;20415;-85
2023/06/28 08:46:46;;;;;;;;;;;;;;;;;;;;;
2023/06/28 08:53:29;;;;;;;;;;;;;;;;;;;;;
2023/06/28 08:56:23;;;;;;;;;;;;;;;;;;;;;
2023/06/28 09:14:23;;;;;;;;;;;;;;;;;;;;;
2023/06/28 09:24:05;;;;;;;13.40;7.93;;;;;;;;;;4695832;30;20052;-87
2023/06/28 09:34:40;;;;;;;;;;;;;;;;;;;;;
2023/06/28 09:51:34;;;;;;;;;;;;;;;;;;;;;
2023/06/28 10:15:39;;;;;;;13.70;11.10;;;;;;;;;;4808854;29;20046;-86
2023/06/28 10:18:27;;;;;;;13.90;11.25;;;;;;;;;;4790872;29;20689;-85
2023/06/28 10:20:53;;;;;;;14.85;10.27;;;;;;;;;;4894725;28;20043;-86
2023/06/28 10:23:19;;;;;;;17.48;12.95;;;;;;;;;;4969009;28;20038;-85
2023/06/28 10:25:45;;;;;;;16.35;12.13;;;;;;;;;;4954421;28;20050;-86
2023/06/28 10:28:12;;;;;;;16.05;12.73;;;;;;;;;;4950503;28;20038;-85
2023/06/28 10:30:39;;;;;;;16.85;11.80;;;;;;;;;;4954167;28;20079;-85
2023/06/28 10:33:06;;;;;;;17.77;13.00;;;;;;;;;;4958237;28;20073;-85
2023/06/28 10:35:32;;;;;;;18.67;12.85;;;;;;;;;;4975111;28;20042;-85
2023/06/28 10:38:01;;;;;;;19.70;13.38;;;;;;;;;;4952680;28;20510;-85
2023/06/28 10:40:27;;;;;;;16.90;13.10;;;;;;;;;;4956643;28;20112;-86
2023/06/28 10:42:53;;;;;;;19.63;13.88;;;;;;;;;;4958684;28;20044;-86
2023/06/28 10:45:39;;;;;;;18.75;14.55;;;;;;;;;;4973114;28;20391;-85
2023/06/28 10:48:06;;;;;;;18.55;14.15;;;;;;;;;;4953136;28;20125;-85
2023/06/28 10:50:41;;;;;;;21.42;15.18;;;;;;;;;;4955411;28;20049;-85
2023/06/28 10:53:07;;;;;;;21.58;14.90;;;;;;;;;;4953681;28;21711;-85
2023/06/28 10:55:34;;;;;;;16.73;13.20;;;;;;;;;;4943319;28;20038;-85
2023/06/28 10:58:11;;;;;;;17.52;12.85;;;;;;;;;;4947816;28;20031;-85
2023/06/28 11:00:37;;;;;;;17.52;14.07;;;;;;;;;;4956670;28;20037;-85
2023/06/28 11:03:04;;;;;;;20.80;15.05;;;;;;;;;;4959007;28;20047;-85
2023/06/28 11:05:45;;;;;;;20.65;14.50;;;;;;;;;;4956314;28;20078;-86
2023/06/28 11:08:15;;;;;;;20.05;14.68;;;;;;;;;;4954372;28;20478;-85
2023/06/28 11:10:41;;;;;;;20.00;15.20;;;;;;;;;;4970857;28;20117;-85
2023/06/28 11:13:11;;;;;;;20.10;13.85;;;;;;;;;;4967794;28;20105;-86
2023/06/28 11:15:38;;;;;;;17.88;14.50;;;;;;;;;;4978537;28;20453;-85
2023/06/28 11:18:11;;;;;;;20.42;14.27;;;;;;;;;;4964254;28;20379;-85
2023/06/28 11:20:54;;;;;;;17.42;14.27;;;;;;;;;;4992842;28;20101;-85
2023/06/28 11:23:24;;;;;;;18.65;15.25;;;;;;;;;;4974107;28;20084;-86
2023/06/28 11:25:55;;;;;;;24.25;15.63;;;;;;;;;;4963277;28;20038;-85
2023/06/28 11:28:44;;;;;;;17.33;14.40;;;;;;;;;;4981721;28;20113;-86
2023/06/28 11:31:20;;;;;;;17.38;13.77;;;;;;;;;;4979237;28;20065;-85
2023/06/28 11:33:50;;;;;;;17.65;13.65;;;;;;;;;;4985382;28;20052;-85
2023/06/28 11:36:16;;;;;;;18.48;13.70;;;;;;;;;;4994057;28;20395;-85
2023/06/28 11:38:43;;;;;;;16.38;14.10;;;;;;;;;;4998456;28;20041;-85
2023/06/28 11:41:09;;;;;;;16.15;14.48;;;;;;;;;;4992762;28;20038;-85
2023/06/28 11:43:35;;;;;;;18.15;13.18;;;;;;;;;;5003022;28;20682;-85
2023/06/28 11:46:01;;;;;;;15.48;13.88;;;;;;;;;;4996362;28;20037;-86
2023/06/28 11:48:27;;;;;;;19.60;14.07;;;;;;;;;;4980795;28;20034;-86
2023/06/28 11:51:00;;;;;;;17.40;14.18;;;;;;;;;;4995091;28;20132;-85
2023/06/28 11:53:29;;;;;;;19.92;13.50;;;;;;;;;;4995548;28;20513;-85
2023/06/28 11:55:56;;;;;;;16.17;12.95;;;;;;;;;;4973043;28;20042;-86
2023/06/28 11:58:28;;;;;;;17.25;12.55;;;;;;;;;;4991703;28;20053;-86
2023/06/28 12:00:54;;;;;;;16.25;12.48;;;;;;;;;;4995740;28;20062;-85
2023/06/28 12:03:30;;;;;;;16.52;13.43;;;;;;;;;;4996869;28;20491;-86
2023/06/28 12:05:56;;;;;;;17.08;14.05;;;;;;;;;;4997065;28;20037;-85
2023/06/28 12:08:22;;;;;;;15.93;13.60;;;;;;;;;;4986489;28;20042;-85
2023/06/28 12:10:49;;;;;;;15.05;13.40;;;;;;;;;;5004538;28;20049;-85
2023/06/28 12:13:24;;;;;;;15.20;13.10;;;;;;;;;;5016122;28;20045;-85
2023/06/28 12:15:58;;;;;;;14.43;12.93;;;;;;;;;;4990108;28;20489;-86
2023/06/28 12:18:43;;;;;;;13.55;12.13;;;;;;;;;;4982174;28;20486;-85
2023/06/28 12:21:19;;;;;;;13.07;11.77;;;;;;;;;;4979590;28;20479;-85
2023/06/28 12:23:45;;;;;;;14.73;12.60;;;;;;;;;;4987713;28;20468;-85
2023/06/28 12:26:11;;;;;;;13.95;12.57;;;;;;;;;;4968410;28;20033;-85
2023/06/28 12:28:37;;;;;;;13.38;11.90;;;;;;;;;;4996647;28;20155;-85
2023/06/28 12:31:03;;;;;;;14.98;12.13;;;;;;;;;;4982033;28;20048;-85
2023/06/28 12:33:29;;;;;;;14.93;13.43;;;;;;;;;;4959722;28;20073;-85
2023/06/28 12:35:59;;;;;;;13.95;12.13;;;;;;;;;;4942982;28;20053;-85
2023/06/28 12:38:26;;;;;;;14.32;12.20;;;;;;;;;;4954289;28;20050;-86
2023/06/28 12:40:52;;;;;;;13.30;11.90;;;;;;;;;;4975370;28;20099;-85
2023/06/28 12:43:24;;;;;;;14.30;12.45;;;;;;;;;;4979404;28;20128;-85
2023/06/28 12:45:51;;;;;;;13.85;12.48;;;;;;;;;;4977316;28;20041;-85
2023/06/28 12:48:17;;;;;;;12.02;10.93;;;;;;;;;;4982213;28;20037;-85
2023/06/28 12:50:44;;;;;;;12.43;11.13;;;;;;;;;;4965847;28;20414;-85
2023/06/28 12:53:31;;;;;;;14.05;12.75;;;;;;;;;;4974497;28;20137;-85
2023/06/28 12:58:32;;;;;;;14.00;12.10;;;;;;;;;;5167924;23;20056;-84
2023/06/28 13:01:39;;;;;;;;;;;;;;;;;;;;;
2023/06/28 13:09:05;;;;;;;;;;;;;;;;;;;;;
2023/06/28 13:25:31;;;;;;;;;;;;;;;;;;;;;
2023/06/28 13:32:34;;;;;;;17.10;14.60;;;;;;;;;;4838843;29;20669;-85
2023/06/28 13:39:10;;;;;;;;;;;;;;;;;;;;;
2023/06/28 13:42:13;;;;;;;;;;;;;;;;;;;;;
2023/06/28 13:56:32;;;;;;;;;;;;;;;;;;;;;
2023/06/28 15:13:37;;;;;;;24.10;18.00;;;;;;;;;;4911221;23;20073;-88
2023/06/28 15:16:18;;;;;;;25.17;18.33;;;;;;;;;;4792184;29;20181;-87
2023/06/28 15:18:44;;;;;;;29.70;19.40;;;;;;;;;;4827291;29;20545;-87
2023/06/28 15:21:10;;;;;;;26.42;19.20;;;;;;;;;;4803546;29;20069;-88
2023/06/28 15:23:42;;;;;;;24.95;18.00;;;;;;;;;;4824206;29;20051;-88
2023/06/28 15:26:08;;;;;;;29.05;19.23;;;;;;;;;;4808166;29;20056;-88
2023/06/28 15:28:34;;;;;;;22.23;15.80;;;;;;;;;;4805041;29;20432;-88
2023/06/28 15:31:00;;;;;;;24.52;17.83;;;;;;;;;;4812356;29;20053;-88
2023/06/28 15:33:26;;;;;;;27.38;18.38;;;;;;;;;;4802864;29;20060;-88
2023/06/28 15:35:55;;;;;;;25.75;17.63;;;;;;;;;;4830727;29;20430;-88
2023/06/28 15:38:22;;;;;;;25.42;16.33;;;;;;;;;;4810951;29;20044;-88
2023/06/28 15:40:51;;;;;;;24.73;17.55;;;;;;;;;;4827580;29;20128;-87
2023/06/28 15:43:21;;;;;;;26.27;17.33;;;;;;;;;;4810727;29;20045;-88
2023/06/28 15:45:53;;;;;;;27.77;18.35;;;;;;;;;;4836983;29;20052;-89
2023/06/28 15:48:28;;;;;;;25.15;16.73;;;;;;;;;;4841527;29;20572;-89
2023/06/28 15:50:54;;;;;;;26.50;18.27;;;;;;;;;;4853373;29;20077;-88
2023/06/28 15:53:30;;;;;;;26.33;17.33;;;;;;;;;;4818104;29;20497;-87
2023/06/28 15:55:56;;;;;;;24.58;16.83;;;;;;;;;;4807519;29;20052;-89
2023/06/28 15:58:26;;;;;;;24.58;16.25;;;;;;;;;;4816070;29;20045;-89
2023/06/28 16:00:56;;;;;;;28.30;17.95;;;;;;;;;;4810096;29;20129;-90
2023/06/28 16:03:22;;;;;;;22.70;16.10;;;;;;;;;;4811771;29;20057;-89
2023/06/28 16:05:48;;;;;;;23.27;16.55;;;;;;;;;;4828311;29;21101;-88
2023/06/28 16:08:17;;;;;;;21.80;16.15;;;;;;;;;;4813865;29;20140;-89
2023/06/28 16:10:43;;;;;;;21.83;15.15;;;;;;;;;;4799663;29;20101;-89
2023/06/28 16:13:13;;;;;;;22.45;15.27;;;;;;;;;;4826065;29;20392;-88
2023/06/28 16:15:39;;;;;;;24.40;16.35;;;;;;;;;;4794130;29;20081;-88
2023/06/28 16:18:05;;;;;;;24.30;15.95;;;;;;;;;;4794264;29;20423;-88
2023/06/28 16:20:31;;;;;;;24.08;15.43;;;;;;;;;;4818474;29;20041;-88
2023/06/28 16:22:59;;;;;;;22.60;15.30;;;;;;;;;;4807230;29;20045;-88
2023/06/28 16:25:25;;;;;;;24.80;16.10;;;;;;;;;;4809709;29;20503;-88
2023/06/28 16:27:52;;;;;;;27.88;18.73;;;;;;;;;;4840116;29;20128;-88
2023/06/28 16:30:18;;;;;;;27.50;18.37;;;;;;;;;;4820278;29;20093;-87
2023/06/28 16:32:44;;;;;;;24.02;15.70;;;;;;;;;;4828220;29;20053;-88
2023/06/28 16:35:11;;;;;;;22.10;15.52;;;;;;;;;;4799949;29;20068;-89
2023/06/28 16:37:42;;;;;;;25.40;17.13;;;;;;;;;;4817469;29;20037;-89
2023/06/28 16:40:11;;;;;;;23.52;16.52;;;;;;;;;;4798184;29;20111;-89
2023/06/28 16:42:37;;;;;;;24.17;16.50;;;;;;;;;;4811047;29;20069;-89
2023/06/28 16:45:03;;;;;;;26.77;17.30;;;;;;;;;;4797237;29;20053;-88
2023/06/28 16:47:32;;;;;;;26.15;16.98;;;;;;;;;;4808269;29;20116;-88
2023/06/28 16:49:58;;;;;;;22.83;17.33;;;;;;;;;;4819038;29;20053;-88
2023/06/28 16:52:29;;;;;;;21.88;17.08;;;;;;;;;;4810633;29;20052;-88
2023/06/28 16:54:58;;;;;;;20.27;15.52;;;;;;;;;;4802196;29;21840;-88
2023/06/28 16:57:27;;;;;;;26.42;17.55;;;;;;;;;;4809856;29;20037;-88
2023/06/28 16:59:53;;;;;;;24.15;18.05;;;;;;;;;;4793997;29;21146;-87
2023/06/28 17:02:19;;;;;;;26.88;17.70;;;;;;;;;;4791889;29;20076;-88
2023/06/28 17:04:46;;;;;;;24.60;18.40;;;;;;;;;;4812926;29;20097;-88
2023/06/28 17:07:12;;;;;;;27.42;18.77;;;;;;;;;;4810742;29;20143;-87
2023/06/28 17:09:38;;;;;;;25.80;18.17;;;;;;;;;;4834467;29;20050;-88
2023/06/28 17:12:04;;;;;;;21.23;15.30;;;;;;;;;;4819395;29;20065;-88
2023/06/28 17:14:31;;;;;;;26.25;17.38;;;;;;;;;;4801459;29;20480;-88
2023/06/28 17:16:57;;;;;;;23.92;16.95;;;;;;;;;;4829200;29;20049;-88
2023/06/28 17:19:23;;;;;;;23.42;16.80;;;;;;;;;;4811801;29;20041;-88
2023/06/28 17:21:49;;;;;;;25.42;17.38;;;;;;;;;;4797396;29;20110;-88
2023/06/28 17:24:15;;;;;;;22.13;16.73;;;;;;;;;;4801547;29;20082;-88
2023/06/28 17:26:42;;;;;;;22.67;16.67;;;;;;;;;;4806928;29;20049;-87
2023/06/28 17:29:09;;;;;;;23.48;15.95;;;;;;;;;;4803837;29;20424;-88
2023/06/28 17:31:35;;;;;;;25.42;15.63;;;;;;;;;;4812492;29;20044;-88
2023/06/28 17:34:01;;;;;;;23.17;16.05;;;;;;;;;;4821517;29;20089;-89
2023/06/28 17:36:29;;;;;;;21.77;15.48;;;;;;;;;;4792292;29;20098;-89
2023/06/28 17:39:00;;;;;;;22.45;15.20;;;;;;;;;;4813581;29;20073;-89
2023/06/28 17:41:35;;;;;;;24.65;16.23;;;;;;;;;;4823214;29;20121;-88
2023/06/28 17:44:04;;;;;;;23.65;17.00;;;;;;;;;;4801781;29;20045;-90
2023/06/28 17:46:31;;;;;;;25.17;16.95;;;;;;;;;;4789474;29;20033;-89
2023/06/28 17:48:57;;;;;;;22.27;16.10;;;;;;;;;;4793015;29;20077;-89
2023/06/28 17:51:28;;;;;;;25.35;16.77;;;;;;;;;;4818601;29;20181;-89
2023/06/28 17:53:57;;;;;;;21.67;16.10;;;;;;;;;;4809657;29;20045;-88
2023/06/28 17:56:25;;;;;;;22.73;16.35;;;;;;;;;;4808186;29;20044;-88
2023/06/28 17:58:51;;;;;;;21.35;16.02;;;;;;;;;;4796436;29;22402;-88
2023/06/28 18:01:20;;;;;;;21.63;16.02;;;;;;;;;;4793272;29;20079;-88
2023/06/28 18:03:51;;;;;;;22.67;14.77;;;;;;;;;;4816033;29;20081;-88
2023/06/28 18:06:23;;;;;;;23.95;17.08;;;;;;;;;;4806629;29;20092;-89
2023/06/28 18:08:53;;;;;;;20.98;15.85;;;;;;;;;;4820202;29;20064;-90
2023/06/28 18:11:28;;;;;;;19.63;15.25;;;;;;;;;;4808268;29;20080;-88
2023/06/28 18:13:57;;;;;;;21.20;14.93;;;;;;;;;;4778696;29;20054;-90
2023/06/28 18:16:23;;;;;;;22.15;16.52;;;;;;;;;;4783065;29;20054;-89
2023/06/28 18:18:52;;;;;;;19.02;15.38;;;;;;;;;;4782540;29;20488;-90
2023/06/28 18:21:19;;;;;;;23.88;16.77;;;;;;;;;;4804974;29;20050;-89
2023/06/28 18:23:45;;;;;;;23.48;16.13;;;;;;;;;;4789567;29;20576;-88
2023/06/28 18:26:11;;;;;;;24.25;14.90;;;;;;;;;;4793961;29;20622;-88